Beech Island, South Carolina
Current Conditions -  °F | °C
As of 7:53 AM on Wednesday 26 Nov 2014 (Local Time) from KAGS Reporting Station
Light Rain Light Rain  
Wind Chill: 45°   Ceiling: 900
Heat Index: 49°   Visibility: 6mi
Dew Point: 48°   Wind: 9mph
Humidity: 97%   Direction: 300°WNW
Pressure: 29.99"   Gusts: NA
Location:  33.43°N, 81.89°W
Report Text: KAGS 261253Z 30008KT 6SM -RA BR BKN009 OVC039 09/09 A2999 RMK AO2 SLP155 P0004 T00940089
Loading
Personal Weather Stations






























Interactive Weather Map New forecast layout! Learn more

10-Day Weather Forecast

Advertisements
Track Severe Weather on mobile